createdAt,value
2019-03-18T00:00:17.985Z,3.33
2019-03-18T00:02:51.921Z,3.40
2019-03-18T00:05:25.531Z,3.02
2019-03-18T00:07:59.478Z,2.35
2019-03-18T00:10:35.552Z,2.58
2019-03-18T00:13:09.190Z,1.70
2019-03-18T00:15:42.804Z,1.70
2019-03-18T00:18:16.637Z,1.75
2019-03-18T00:20:50.327Z,2.08
2019-03-18T00:23:24.054Z,1.70
2019-03-18T00:25:57.697Z,1.90
2019-03-18T00:28:31.608Z,1.70
2019-03-18T00:31:05.291Z,1.40
2019-03-18T00:33:39.120Z,1.67
2019-03-18T00:36:12.907Z,1.47
2019-03-18T00:38:46.726Z,1.50
2019-03-18T00:41:20.838Z,1.50
2019-03-18T00:43:54.446Z,1.45
2019-03-18T00:46:28.031Z,1.55
2019-03-18T00:49:01.594Z,1.65
2019-03-18T00:51:35.331Z,1.57
2019-03-18T00:54:10.779Z,1.52
2019-03-18T00:56:44.264Z,1.40
2019-03-18T00:59:17.735Z,1.37
2019-03-18T01:01:51.264Z,1.40
2019-03-18T01:04:24.736Z,1.30
2019-03-18T01:06:58.488Z,1.30
2019-03-18T01:09:31.966Z,1.10
2019-03-18T01:12:05.521Z,1.20
2019-03-18T01:14:38.939Z,1.25
2019-03-18T01:17:12.550Z,1.62
2019-03-18T01:19:46.157Z,1.82
2019-03-18T01:22:19.731Z,1.50
2019-03-18T01:24:53.347Z,1.17
2019-03-18T01:27:26.916Z,1.62
2019-03-18T01:30:00.401Z,1.05
2019-03-18T01:32:33.874Z,0.98
2019-03-18T01:35:08.901Z,0.93
2019-03-18T01:37:42.404Z,1.20
2019-03-18T01:40:15.909Z,1.30
2019-03-18T01:42:49.490Z,1.47
2019-03-18T01:45:23.151Z,0.90
2019-03-18T01:47:56.648Z,1.10
2019-03-18T01:50:30.388Z,1.37
2019-03-18T01:53:03.960Z,1.17
2019-03-18T01:55:37.667Z,1.30
2019-03-18T01:58:11.235Z,1.77
2019-03-18T02:00:44.816Z,1.57
2019-03-18T02:03:18.394Z,1.77
2019-03-18T02:05:52.042Z,1.50
2019-03-18T02:08:25.514Z,1.47
2019-03-18T02:10:59.290Z,1.60
2019-03-18T02:13:32.994Z,1.55
2019-03-18T02:16:06.664Z,1.60
2019-03-18T02:18:40.202Z,1.50
2019-03-18T02:21:13.840Z,1.87
2019-03-18T02:23:47.242Z,1.98
2019-03-18T02:26:20.708Z,1.90
2019-03-18T02:28:54.164Z,1.55
2019-03-18T02:31:27.893Z,1.82
2019-03-18T02:34:01.338Z,1.72
2019-03-18T02:36:35.068Z,2.40
2019-03-18T02:39:08.640Z,2.75
2019-03-18T02:41:42.167Z,2.90
2019-03-18T02:44:15.806Z,3.90
2019-03-18T02:46:49.444Z,3.95
2019-03-18T02:49:23.072Z,4.53
2019-03-18T02:51:56.622Z,3.65
2019-03-18T02:54:30.226Z,3.08
2019-03-18T02:57:05.429Z,2.47
2019-03-18T02:59:39.084Z,2.40
2019-03-18T03:02:12.662Z,2.17
2019-03-18T03:04:46.803Z,2.25
2019-03-18T03:07:20.274Z,2.72
2019-03-18T03:09:54.078Z,2.40
2019-03-18T03:12:27.676Z,2.20
2019-03-18T03:15:01.212Z,2.60
2019-03-18T03:17:34.920Z,2.70
2019-03-18T03:20:11.936Z,2.75
2019-03-18T03:22:45.365Z,3.20
2019-03-18T03:25:18.899Z,3.60
2019-03-18T03:27:52.526Z,4.08
2019-03-18T03:30:26.329Z,4.50
2019-03-18T03:32:59.932Z,5.00
2019-03-18T03:35:33.576Z,4.85
2019-03-18T03:38:07.060Z,5.12
2019-03-18T03:40:40.792Z,6.47
2019-03-18T03:43:14.269Z,7.15
2019-03-18T03:45:47.884Z,6.40
2019-03-18T03:48:21.465Z,5.90
2019-03-18T03:50:55.147Z,5.87
2019-03-18T03:53:30.847Z,6.15
2019-03-18T03:56:04.077Z,5.60
2019-03-18T03:58:37.545Z,5.50
2019-03-18T04:01:11.128Z,5.15
2019-03-18T04:03:44.708Z,5.10
2019-03-18T04:06:18.223Z,5.28
2019-03-18T04:08:51.841Z,5.90
2019-03-18T04:11:25.346Z,5.55
2019-03-18T04:13:58.972Z,4.40
2019-03-18T04:16:32.602Z,4.33
2019-03-18T04:19:06.139Z,4.55
2019-03-18T04:21:39.699Z,4.50
2019-03-18T04:24:13.407Z,5.30
2019-03-18T04:26:47.011Z,4.85
2019-03-18T04:29:20.645Z,5.50
2019-03-18T04:31:54.235Z,5.40
2019-03-18T04:34:27.786Z,5.58
2019-03-18T04:37:01.271Z,6.15
2019-03-18T04:39:34.915Z,5.60
2019-03-18T04:42:08.372Z,6.20
2019-03-18T04:44:41.993Z,6.58
2019-03-18T04:47:15.579Z,7.47
2019-03-18T04:49:49.244Z,6.67
2019-03-18T04:52:22.816Z,8.48
2019-03-18T04:54:56.455Z,6.50
2019-03-18T04:57:30.024Z,7.10
2019-03-18T05:00:06.945Z,5.90
2019-03-18T05:02:40.423Z,5.90
2019-03-18T05:05:14.066Z,5.75
2019-03-18T05:07:47.540Z,6.33
2019-03-18T05:10:21.075Z,6.28
2019-03-18T05:12:54.482Z,7.33
2019-03-18T05:15:28.173Z,7.45
2019-03-18T05:18:01.715Z,7.70
2019-03-18T05:20:35.363Z,7.95
2019-03-18T05:23:08.839Z,8.38
2019-03-18T05:25:42.555Z,7.65
2019-03-18T05:28:16.025Z,8.75
2019-03-18T05:30:49.647Z,7.97
2019-03-18T05:33:23.374Z,8.23
2019-03-18T05:35:56.889Z,7.90
2019-03-18T05:38:30.537Z,7.85
2019-03-18T05:41:04.199Z,6.92
2019-03-18T05:43:37.613Z,7.20
2019-03-18T05:46:11.338Z,7.03
2019-03-18T05:48:44.839Z,7.42
2019-03-18T05:51:18.472Z,6.75
2019-03-18T05:53:51.968Z,7.60
2019-03-18T05:56:25.589Z,6.42
2019-03-18T05:58:59.263Z,6.17
2019-03-18T06:01:33.182Z,6.05
2019-03-18T06:04:06.765Z,5.97
2019-03-18T06:06:40.265Z,5.95
2019-03-18T06:09:13.896Z,5.20
2019-03-18T06:11:47.413Z,4.62
2019-03-18T06:14:21.011Z,4.15
2019-03-18T06:16:54.475Z,4.58
2019-03-18T06:19:28.117Z,4.65
2019-03-18T06:22:01.709Z,4.60
2019-03-18T06:24:35.212Z,5.22
2019-03-18T06:27:08.864Z,5.35
2019-03-18T06:29:42.437Z,5.03
2019-03-18T06:32:16.041Z,4.87
2019-03-18T06:34:49.693Z,4.87
2019-03-18T06:37:23.395Z,4.95
2019-03-18T06:39:56.981Z,5.05
2019-03-18T06:42:30.614Z,5.28
2019-03-18T06:45:06.673Z,5.03
2019-03-18T06:47:40.312Z,5.67
2019-03-18T06:50:13.966Z,5.50
2019-03-18T06:52:47.597Z,5.60
2019-03-18T06:55:21.063Z,5.47
2019-03-18T06:57:54.824Z,6.03
2019-03-18T07:00:28.291Z,5.95
2019-03-18T07:03:01.931Z,5.40
2019-03-18T07:05:35.414Z,6.35
2019-03-18T07:08:08.976Z,6.33
2019-03-18T07:10:42.449Z,6.58
2019-03-18T07:13:16.091Z,6.40
2019-03-18T07:15:49.740Z,7.42
2019-03-18T07:18:23.223Z,6.62
2019-03-18T07:20:56.803Z,6.42
2019-03-18T07:23:30.345Z,6.92
2019-03-18T07:26:03.825Z,6.83
2019-03-18T07:28:37.359Z,7.47
2019-03-18T07:31:10.917Z,6.55
2019-03-18T07:33:44.443Z,7.30
2019-03-18T07:37:38.175Z,7.05
2019-03-18T07:40:12.931Z,7.03
2019-03-18T07:42:46.366Z,7.33
2019-03-18T07:45:19.934Z,7.10
2019-03-18T07:47:53.640Z,7.97
2019-03-18T07:50:27.139Z,6.58
2019-03-18T07:53:00.706Z,6.55
2019-03-18T07:55:34.298Z,6.42
2019-03-18T07:58:07.776Z,6.50
2019-03-18T08:00:41.269Z,6.87
2019-03-18T08:03:14.726Z,4.45
2019-03-18T08:05:48.364Z,4.80
2019-03-18T08:08:21.965Z,4.92
2019-03-18T08:10:55.548Z,4.72
2019-03-18T08:16:49.419Z,5.20
2019-03-18T08:19:23.136Z,4.50
2019-03-18T08:24:27.043Z,4.87
2019-03-18T08:27:00.517Z,4.08
2019-03-18T08:29:34.013Z,4.50
2019-03-18T08:32:07.488Z,4.22
2019-03-18T08:34:40.972Z,3.50
2019-03-18T08:37:16.603Z,3.20
2019-03-18T08:39:50.193Z,2.87
2019-03-18T08:42:23.931Z,2.85
2019-03-18T08:44:57.432Z,2.98
2019-03-18T08:47:30.831Z,2.45
2019-03-18T08:50:06.605Z,2.47
2019-03-18T08:52:40.071Z,3.37
2019-03-18T08:55:13.580Z,3.12
2019-03-18T08:57:47.114Z,3.50
2019-03-18T09:00:20.614Z,4.58
2019-03-18T09:02:56.365Z,4.28
2019-03-18T09:05:29.282Z,4.47
2019-03-18T09:08:02.821Z,3.77
2019-03-18T09:10:36.360Z,3.65
2019-03-18T09:13:09.860Z,3.92
2019-03-18T09:15:43.399Z,3.50
2019-03-18T09:18:16.925Z,3.95
2019-03-18T09:20:50.473Z,4.10
2019-03-18T09:23:24.010Z,3.12
2019-03-18T09:25:57.469Z,2.87
2019-03-18T09:28:31.010Z,4.20
2019-03-18T09:31:04.526Z,3.98
2019-03-18T09:33:38.133Z,3.60
2019-03-18T09:36:11.604Z,3.55
2019-03-18T09:38:45.184Z,3.77
2019-03-18T09:41:18.750Z,4.12
2019-03-18T09:43:52.292Z,3.27
2019-03-18T09:46:26.051Z,3.85
2019-03-18T09:48:59.640Z,3.67
2019-03-18T09:51:33.180Z,3.95
2019-03-18T09:54:06.704Z,3.17
2019-03-18T09:56:40.261Z,3.30
2019-03-18T09:59:13.787Z,2.90
2019-03-18T10:01:47.325Z,2.67
2019-03-18T10:04:20.828Z,1.87
2019-03-18T10:06:54.687Z,1.62
2019-03-18T10:09:28.146Z,2.33
2019-03-18T10:12:01.658Z,1.95
2019-03-18T10:14:35.208Z,2.00
2019-03-18T10:17:10.083Z,10.08
2019-03-18T10:19:43.809Z,2.70
2019-03-18T10:22:17.448Z,2.62
2019-03-18T10:24:50.912Z,2.77
2019-03-18T10:27:24.429Z,2.62
2019-03-18T10:29:57.940Z,3.17
2019-03-18T10:32:31.415Z,2.98
2019-03-18T10:35:05.730Z,2.92
2019-03-18T10:37:39.205Z,6.05
2019-03-18T10:40:13.464Z,4.28
2019-03-18T10:42:46.976Z,3.35
2019-03-18T10:45:20.598Z,3.10
2019-03-18T10:47:55.030Z,3.33
2019-03-18T10:50:28.759Z,3.52
2019-03-18T10:53:02.268Z,3.62
2019-03-18T10:55:35.830Z,3.27
2019-03-18T10:58:09.393Z,3.55
2019-03-18T11:00:42.884Z,3.45
2019-03-18T11:03:16.346Z,3.05
2019-03-18T11:05:50.012Z,3.40
2019-03-18T11:08:23.484Z,3.60
2019-03-18T11:10:57.102Z,3.90
2019-03-18T11:13:30.589Z,6.47
2019-03-18T11:16:04.116Z,6.35
2019-03-18T11:18:37.692Z,3.67
2019-03-18T11:21:11.242Z,3.60
2019-03-18T11:23:44.822Z,4.87
2019-03-18T11:26:18.362Z,4.10
2019-03-18T11:28:51.828Z,4.10
2019-03-18T11:31:25.549Z,3.72
2019-03-18T11:33:59.022Z,4.28
2019-03-18T11:36:32.521Z,4.40
2019-03-18T11:39:06.390Z,4.75
2019-03-18T11:41:40.088Z,6.12
2019-03-18T11:44:13.698Z,4.80
2019-03-18T11:46:47.158Z,4.58
2019-03-18T11:49:20.696Z,5.33
2019-03-18T11:51:54.156Z,5.08
2019-03-18T11:54:27.740Z,5.20
2019-03-18T11:57:01.320Z,4.90
2019-03-18T11:59:34.956Z,4.92
2019-03-18T12:02:08.948Z,5.90
2019-03-18T12:04:42.640Z,6.12
2019-03-18T12:07:16.180Z,5.33
2019-03-18T12:09:49.674Z,5.90
2019-03-18T12:12:23.215Z,6.00
2019-03-18T12:14:56.696Z,6.92
2019-03-18T12:17:30.229Z,6.83
2019-03-18T12:20:06.561Z,7.47
2019-03-18T12:22:40.100Z,6.78
2019-03-18T12:25:13.724Z,6.65
2019-03-18T12:27:48.777Z,6.50
2019-03-18T12:30:26.362Z,6.80
2019-03-18T12:32:59.938Z,6.47
2019-03-18T12:35:33.665Z,6.90
2019-03-18T12:38:07.164Z,6.83
2019-03-18T12:40:40.669Z,7.45
2019-03-18T12:43:14.399Z,6.90
2019-03-18T12:45:48.037Z,5.80
2019-03-18T12:48:21.514Z,6.03
2019-03-18T12:50:56.698Z,5.40
2019-03-18T12:53:30.622Z,5.45
2019-03-18T12:56:04.286Z,5.95
2019-03-18T12:58:37.760Z,6.60
2019-03-18T13:01:12.871Z,5.50
2019-03-18T13:03:46.541Z,6.70
2019-03-18T13:06:20.173Z,5.75
2019-03-18T13:08:53.753Z,6.20
2019-03-18T13:11:27.378Z,5.67
2019-03-18T13:14:01.301Z,6.28
2019-03-18T13:16:34.812Z,4.20
2019-03-18T13:19:08.375Z,4.40
2019-03-18T13:21:41.910Z,4.20
2019-03-18T13:24:15.322Z,3.60
2019-03-18T13:26:49.134Z,3.65
2019-03-18T13:29:22.725Z,3.80
2019-03-18T13:31:56.431Z,3.55
2019-03-18T13:34:29.905Z,3.30
2019-03-18T13:37:03.525Z,3.22
2019-03-18T13:39:37.068Z,3.52
2019-03-18T13:42:10.782Z,3.60
2019-03-18T13:44:44.355Z,3.70
2019-03-18T13:47:17.964Z,3.30
2019-03-18T13:49:51.555Z,2.77
2019-03-18T13:52:25.193Z,3.00
2019-03-18T13:54:58.780Z,2.90
2019-03-18T13:57:32.405Z,2.77
2019-03-18T14:00:15.303Z,2.85
2019-03-18T14:02:48.835Z,2.95
2019-03-18T14:05:23.011Z,3.10
2019-03-18T14:08:00.781Z,2.85
2019-03-18T14:10:31.733Z,3.15
2019-03-18T14:13:05.197Z,1.17
2019-03-18T14:15:38.718Z,2.02
2019-03-18T14:18:12.217Z,3.02
2019-03-18T14:20:45.683Z,2.98
2019-03-18T14:23:19.199Z,2.77
2019-03-18T14:25:52.675Z,3.17
2019-03-18T14:28:26.131Z,3.17
2019-03-18T14:30:59.613Z,4.45
2019-03-18T14:33:33.106Z,3.20
2019-03-18T14:36:06.747Z,3.45
2019-03-18T14:38:40.226Z,3.45
2019-03-18T14:41:13.744Z,3.42
2019-03-18T14:43:47.238Z,2.20
2019-03-18T14:46:20.758Z,3.33
2019-03-18T14:48:54.553Z,3.62
2019-03-18T14:51:28.046Z,3.65
2019-03-18T14:54:01.656Z,4.00
2019-03-18T14:56:35.161Z,3.35
2019-03-18T14:59:08.676Z,3.22
2019-03-18T15:01:42.087Z,2.10
2019-03-18T15:04:15.516Z,2.87
2019-03-18T15:06:48.999Z,2.83
2019-03-18T15:09:22.518Z,2.70
2019-03-18T15:11:56.538Z,2.70
2019-03-18T15:14:30.015Z,2.52
2019-03-18T15:17:03.654Z,3.62
2019-03-18T15:19:37.135Z,3.37
2019-03-18T15:22:10.752Z,2.72
2019-03-18T15:24:44.231Z,3.92
2019-03-18T15:27:17.754Z,2.83
2019-03-18T15:29:51.229Z,3.17
2019-03-18T15:32:24.895Z,2.52
2019-03-18T15:34:58.380Z,2.62
2019-03-18T15:37:32.459Z,2.92
2019-03-18T15:40:10.464Z,2.65
2019-03-18T15:42:44.175Z,2.30
2019-03-18T15:45:18.882Z,2.87
2019-03-18T15:47:52.368Z,2.52
2019-03-18T15:50:26.410Z,3.25
2019-03-18T15:52:59.935Z,3.25
2019-03-18T15:55:33.416Z,3.55
2019-03-18T15:58:06.916Z,2.42
2019-03-18T16:00:40.393Z,3.80
2019-03-18T16:03:14.015Z,3.77
2019-03-18T16:05:47.550Z,3.72
2019-03-18T16:08:22.467Z,4.22
2019-03-18T16:10:57.437Z,3.45
2019-03-18T16:13:30.976Z,4.03
2019-03-18T16:16:04.459Z,4.25
2019-03-18T16:18:38.066Z,4.12
2019-03-18T16:21:11.602Z,3.60
2019-03-18T16:23:45.129Z,4.10
2019-03-18T16:26:20.115Z,4.60
2019-03-18T16:28:53.943Z,3.60
2019-03-18T16:31:27.428Z,5.05
2019-03-18T16:34:00.974Z,3.70
2019-03-18T17:13:17.189Z,3.45
2019-03-18T17:15:50.744Z,3.70
2019-03-18T17:18:24.258Z,4.67
2019-03-18T17:20:57.757Z,2.70
2019-03-18T17:23:31.237Z,5.10
2019-03-18T17:26:04.902Z,5.15
2019-03-18T17:28:38.384Z,5.42
2019-03-18T17:31:11.958Z,4.75
2019-03-18T17:33:45.441Z,6.62
2019-03-18T17:36:19.079Z,7.05
2019-03-18T17:38:52.563Z,5.83
2019-03-18T17:41:26.166Z,6.50
2019-03-18T17:43:59.682Z,6.87
2019-03-18T17:46:33.207Z,6.85
2019-03-18T17:49:06.678Z,7.60
2019-03-18T17:51:40.230Z,7.12
2019-03-18T17:54:13.689Z,6.42
2019-03-18T17:56:47.162Z,6.67
2019-03-18T17:59:20.740Z,8.33
2019-03-18T18:01:54.328Z,6.25
2019-03-18T18:04:27.792Z,8.33
2019-03-18T18:07:02.848Z,8.30
2019-03-18T18:09:36.240Z,8.33
2019-03-18T18:12:09.798Z,7.25
2019-03-18T18:14:43.272Z,9.75
2019-03-18T18:17:16.866Z,8.90
2019-03-18T18:19:50.348Z,8.60
2019-03-18T18:22:23.883Z,9.48
2019-03-18T18:24:57.402Z,10.50
2019-03-18T18:27:31.116Z,9.48
2019-03-18T18:30:12.774Z,10.63
2019-03-18T18:32:46.440Z,10.05
2019-03-18T18:35:19.916Z,10.63
2019-03-18T18:37:53.519Z,10.75
2019-03-18T18:40:30.600Z,10.65
2019-03-18T18:43:04.149Z,10.43
2019-03-18T18:45:37.740Z,11.00
2019-03-18T18:48:11.530Z,12.28
2019-03-18T18:50:45.083Z,11.75
2019-03-18T18:53:26.328Z,13.22
2019-03-18T18:55:53.918Z,13.53
2019-03-18T18:58:27.484Z,11.73
2019-03-18T19:01:00.974Z,12.60
2019-03-18T19:03:34.499Z,14.20
2019-03-18T19:06:08.094Z,12.50
2019-03-18T19:08:41.795Z,13.43
2019-03-18T19:11:15.334Z,13.80
2019-03-18T19:13:48.880Z,12.45
2019-03-18T19:16:22.375Z,13.55
2019-03-18T19:18:55.880Z,14.45
2019-03-18T19:21:29.422Z,14.00
2019-03-18T19:24:02.983Z,13.80
2019-03-18T19:26:36.598Z,12.58
2019-03-18T19:29:10.924Z,14.05
2019-03-18T19:31:44.800Z,12.28
2019-03-18T19:34:18.580Z,11.93
2019-03-18T19:36:52.380Z,13.00
2019-03-18T19:39:26.177Z,14.10
2019-03-18T19:41:59.955Z,13.60
2019-03-18T19:44:33.939Z,13.93
2019-03-18T19:47:07.702Z,13.75
2019-03-18T19:49:41.447Z,14.73
2019-03-18T19:52:15.244Z,14.50
2019-03-18T19:54:49.256Z,13.15
2019-03-18T19:57:23.138Z,12.98
2019-03-18T19:59:56.931Z,14.03
2019-03-18T20:02:30.841Z,15.38
2019-03-18T20:05:14.538Z,12.30
2019-03-18T20:07:40.992Z,14.70
2019-03-18T20:10:16.986Z,17.17
2019-03-18T20:12:50.876Z,16.30
2019-03-18T20:15:24.651Z,14.73
2019-03-18T20:17:58.549Z,15.32
2019-03-18T20:20:34.249Z,16.75
2019-03-18T20:23:08.321Z,15.90
2019-03-18T20:25:42.228Z,16.75
2019-03-18T20:28:16.210Z,15.68
2019-03-18T20:30:50.221Z,16.07
2019-03-18T20:33:26.800Z,17.65
2019-03-18T20:36:00.677Z,17.27
2019-03-18T20:38:34.590Z,17.85
2019-03-18T20:41:09.961Z,17.07
2019-03-18T20:43:43.870Z,18.27
2019-03-18T20:46:17.686Z,16.45
2019-03-18T20:48:51.594Z,17.42
2019-03-18T20:51:25.383Z,18.62
2019-03-18T20:53:59.395Z,19.77
2019-03-18T20:56:33.300Z,18.27
2019-03-18T20:59:07.280Z,21.17
2019-03-18T21:01:41.188Z,16.45
2019-03-18T21:04:15.157Z,20.23
2019-03-18T21:06:49.073Z,17.73
2019-03-18T21:09:23.046Z,19.98
2019-03-18T21:11:56.912Z,19.57
2019-03-18T21:14:32.358Z,18.57
2019-03-18T21:17:06.278Z,19.80
2019-03-18T21:19:40.304Z,19.42
2019-03-18T21:22:14.108Z,17.70
2019-03-18T21:24:48.312Z,19.80
2019-03-18T21:27:22.102Z,17.57
2019-03-18T21:29:55.960Z,17.35
2019-03-18T22:18:57.040Z,21.37
2019-03-18T22:21:29.654Z,18.73
2019-03-18T22:24:03.040Z,20.62
2019-03-18T22:26:35.615Z,19.62
2019-03-18T22:29:08.138Z,20.77
2019-03-18T22:31:40.818Z,20.52
2019-03-18T22:34:13.359Z,20.72
2019-03-18T22:36:45.856Z,20.92
2019-03-18T22:39:18.326Z,19.23
2019-03-18T22:41:50.958Z,19.02
2019-03-18T22:44:23.494Z,16.42
2019-03-18T22:46:56.092Z,15.75
2019-03-18T22:49:28.615Z,15.70
2019-03-18T22:52:01.386Z,15.98
2019-03-18T22:54:33.828Z,16.93
2019-03-18T22:57:06.614Z,16.15
2019-03-18T22:59:39.148Z,16.57
2019-03-18T23:02:11.685Z,16.30
2019-03-18T23:04:44.312Z,16.05
2019-03-18T23:07:16.828Z,15.72
2019-03-18T23:09:49.400Z,16.70
2019-03-18T23:12:21.846Z,15.90
2019-03-18T23:14:54.436Z,16.93
2019-03-18T23:17:26.964Z,15.68
2019-03-18T23:19:59.519Z,16.35
2019-03-18T23:22:32.169Z,16.95
2019-03-18T23:25:07.515Z,16.02
2019-03-18T23:27:39.036Z,17.15
2019-03-18T23:30:14.640Z,15.88
2019-03-18T23:32:47.699Z,15.32
2019-03-18T23:35:20.220Z,16.27
2019-03-18T23:37:52.807Z,15.48
2019-03-18T23:40:25.324Z,16.10
2019-03-18T23:42:58.025Z,15.00
2019-03-18T23:45:30.637Z,15.98
2019-03-18T23:48:03.403Z,15.53
2019-03-18T23:50:35.921Z,15.30
2019-03-18T23:53:08.479Z,15.88
2019-03-18T23:55:41.245Z,14.28
2019-03-18T23:58:13.869Z,15.58
